sensor_id;sensor_type;location;lat;lon;timestamp;pressure;altitude;pressure_sealevel;temperature;humidity
44992;BME280;56865;51.618;7.406;2023-02-28T00:11:20;102244.22;;;8.78;99.33
44992;BME280;56865;51.618;7.406;2023-02-28T00:15:16;102257.25;;;8.42;95.25
44992;BME280;56865;51.618;7.406;2023-02-28T00:18:38;102247.72;;;8.52;96.42
44992;BME280;56865;51.618;7.406;2023-02-28T00:28:53;102246.44;;;8.05;93.59
44992;BME280;56865;51.618;7.406;2023-02-28T00:32:16;102255.16;;;8.08;93.41
44992;BME280;56865;51.618;7.406;2023-02-28T00:39:00;102247.91;;;8.28;97.84
44992;BME280;56865;51.618;7.406;2023-02-28T01:25:33;102246.66;;;7.68;94.08
44992;BME280;56865;51.618;7.406;2023-02-28T01:35:56;102241.97;;;7.74;94.49
44992;BME280;56865;51.618;7.406;2023-02-28T03:54:24;102228.25;;;7.06;91.84
44992;BME280;56865;51.618;7.406;2023-02-28T03:57:39;102231.22;;;7.12;92.45
44992;BME280;56865;51.618;7.406;2023-02-28T04:00:19;102224.44;;;6.74;90.79
44992;BME280;56865;51.618;7.406;2023-02-28T04:02:52;102230.56;;;6.78;92.42
44992;BME280;56865;51.618;7.406;2023-02-28T04:05:23;102230.72;;;6.93;94.60
44992;BME280;56865;51.618;7.406;2023-02-28T04:08:10;102228.78;;;6.89;90.86
44992;BME280;56865;51.618;7.406;2023-02-28T04:10:56;102231.38;;;7.02;95.34
44992;BME280;56865;51.618;7.406;2023-02-28T04:13:31;102231.13;;;6.86;94.58
44992;BME280;56865;51.618;7.406;2023-02-28T04:16:01;102226.56;;;6.93;93.11
44992;BME280;56865;51.618;7.406;2023-02-28T04:18:58;102234.16;;;6.68;92.60
44992;BME280;56865;51.618;7.406;2023-02-28T04:21:33;102237.38;;;6.54;89.25
44992;BME280;56865;51.618;7.406;2023-02-28T04:24:08;102235.19;;;6.46;92.85
44992;BME280;56865;51.618;7.406;2023-02-28T04:26:46;102234.84;;;6.54;95.85
44992;BME280;56865;51.618;7.406;2023-02-28T04:31:48;102231.63;;;6.68;95.03
44992;BME280;56865;51.618;7.406;2023-02-28T04:34:23;102243.88;;;6.62;95.00
44992;BME280;56865;51.618;7.406;2023-02-28T04:36:54;102244.72;;;6.74;91.89
44992;BME280;56865;51.618;7.406;2023-02-28T04:39:42;102237.66;;;6.70;94.13
44992;BME280;56865;51.618;7.406;2023-02-28T04:42:15;102243.47;;;6.32;91.70
44992;BME280;56865;51.618;7.406;2023-02-28T04:44:48;102243.28;;;6.17;91.59
44992;BME280;56865;51.618;7.406;2023-02-28T04:47:18;102243.69;;;6.35;95.40
44992;BME280;56865;51.618;7.406;2023-02-28T04:49:48;102243.56;;;6.45;93.86
44992;BME280;56865;51.618;7.406;2023-02-28T04:52:20;102241.97;;;5.98;90.87
44992;BME280;56865;51.618;7.406;2023-02-28T04:54:50;102252.75;;;6.20;91.27
44992;BME280;56865;51.618;7.406;2023-02-28T04:57:25;102242.91;;;8.85;93.79
44992;BME280;56865;51.618;7.406;2023-02-28T04:59:58;102238.16;;;7.80;89.23
44992;BME280;56865;51.618;7.406;2023-02-28T05:02:36;102242.63;;;6.94;92.98
44992;BME280;56865;51.618;7.406;2023-02-28T05:05:06;102242.28;;;6.76;93.73
44992;BME280;56865;51.618;7.406;2023-02-28T05:07:48;102246.41;;;6.50;93.19
44992;BME280;56865;51.618;7.406;2023-02-28T05:10:20;102249.31;;;6.31;89.26
44992;BME280;56865;51.618;7.406;2023-02-28T05:12:55;102250.75;;;6.39;92.74
44992;BME280;56865;51.618;7.406;2023-02-28T05:39:45;102257.56;;;5.93;91.87
44992;BME280;56865;51.618;7.406;2023-02-28T06:06:58;102275.53;;;6.08;95.22
44992;BME280;56865;51.618;7.406;2023-02-28T06:09:28;102279.81;;;6.09;93.71
44992;BME280;56865;51.618;7.406;2023-02-28T06:11:58;102283.06;;;5.96;92.00
44992;BME280;56865;51.618;7.406;2023-02-28T06:14:30;102287.91;;;5.81;91.74
44992;BME280;56865;51.618;7.406;2023-02-28T06:17:00;102282.09;;;5.94;92.88
44992;BME280;56865;51.618;7.406;2023-02-28T06:19:30;102282.41;;;5.86;91.37
44992;BME280;56865;51.618;7.406;2023-02-28T06:22:02;102290.78;;;5.85;90.91
44992;BME280;56865;51.618;7.406;2023-02-28T06:24:32;102292.16;;;6.04;92.33
44992;BME280;56865;51.618;7.406;2023-02-28T06:27:02;102298.41;;;6.09;93.67
44992;BME280;56865;51.618;7.406;2023-02-28T06:29:32;102295.66;;;6.06;93.56
44992;BME280;56865;51.618;7.406;2023-02-28T06:32:02;102292.44;;;5.97;92.56
44992;BME280;56865;51.618;7.406;2023-02-28T06:34:32;102289.91;;;5.97;91.58
44992;BME280;56865;51.618;7.406;2023-02-28T06:37:04;102293.91;;;6.05;93.31
44992;BME280;56865;51.618;7.406;2023-02-28T06:39:34;102299.28;;;6.10;93.45
44992;BME280;56865;51.618;7.406;2023-02-28T06:42:03;102293.47;;;6.11;94.00
44992;BME280;56865;51.618;7.406;2023-02-28T06:44:33;102294.16;;;6.20;94.37
44992;BME280;56865;51.618;7.406;2023-02-28T06:47:04;102287.53;;;6.22;94.08
44992;BME280;56865;51.618;7.406;2023-02-28T06:49:34;102295.00;;;6.32;91.26
44992;BME280;56865;51.618;7.406;2023-02-28T06:52:08;102295.66;;;6.30;93.48
44992;BME280;56865;51.618;7.406;2023-02-28T06:54:38;102297.19;;;6.40;93.91
44992;BME280;56865;51.618;7.406;2023-02-28T06:57:07;102301.94;;;6.35;92.65
44992;BME280;56865;51.618;7.406;2023-02-28T06:59:37;102298.28;;;6.43;94.07
44992;BME280;56865;51.618;7.406;2023-02-28T07:02:07;102294.09;;;6.44;94.88
44992;BME280;56865;51.618;7.406;2023-02-28T07:04:37;102299.97;;;6.43;93.88
44992;BME280;56865;51.618;7.406;2023-02-28T07:07:13;102303.34;;;6.55;93.76
44992;BME280;56865;51.618;7.406;2023-02-28T07:09:43;102305.88;;;6.55;94.26
44992;BME280;56865;51.618;7.406;2023-02-28T07:12:12;102309.72;;;6.62;94.70
44992;BME280;56865;51.618;7.406;2023-02-28T07:14:42;102304.63;;;6.74;94.58
44992;BME280;56865;51.618;7.406;2023-02-28T07:17:13;102299.59;;;6.99;94.56
44992;BME280;56865;51.618;7.406;2023-02-28T07:19:43;102301.97;;;7.09;94.33
44992;BME280;56865;51.618;7.406;2023-02-28T07:22:16;102304.06;;;7.15;94.88
44992;BME280;56865;51.618;7.406;2023-02-28T07:24:45;102313.72;;;7.21;94.99
44992;BME280;56865;51.618;7.406;2023-02-28T07:27:17;102313.78;;;7.34;94.50
44992;BME280;56865;51.618;7.406;2023-02-28T07:29:52;102315.75;;;7.38;96.09
44992;BME280;56865;51.618;7.406;2023-02-28T07:32:22;102316.75;;;7.40;94.40
44992;BME280;56865;51.618;7.406;2023-02-28T07:34:52;102323.94;;;7.34;95.18
44992;BME280;56865;51.618;7.406;2023-02-28T07:42:41;102320.44;;;7.32;94.01
44992;BME280;56865;51.618;7.406;2023-02-28T07:45:11;102329.00;;;7.59;94.54
44992;BME280;56865;51.618;7.406;2023-02-28T10:12:02;102270.59;;;11.60;100.00
44992;BME280;56865;51.618;7.406;2023-02-28T10:14:36;102302.41;;;12.19;100.00
44992;BME280;56865;51.618;7.406;2023-02-28T10:17:10;102303.66;;;12.65;100.00
44992;BME280;56865;51.618;7.406;2023-02-28T10:19:40;102308.91;;;12.13;100.00
44992;BME280;56865;51.618;7.406;2023-02-28T10:22:19;102302.31;;;11.65;99.83
44992;BME280;56865;51.618;7.406;2023-02-28T10:24:50;102301.09;;;12.10;95.29
44992;BME280;56865;51.618;7.406;2023-02-28T10:27:24;102300.94;;;12.43;100.00
44992;BME280;56865;51.618;7.406;2023-02-28T10:29:55;102313.63;;;12.79;100.00
44992;BME280;56865;51.618;7.406;2023-02-28T10:32:27;102311.84;;;12.58;99.04
44992;BME280;56865;51.618;7.406;2023-02-28T10:35:01;102313.59;;;12.22;93.45
44992;BME280;56865;51.618;7.406;2023-02-28T10:37:39;102309.03;;;12.52;99.26
44992;BME280;56865;51.618;7.406;2023-02-28T10:40:24;102306.91;;;12.81;90.14
44992;BME280;56865;51.618;7.406;2023-02-28T10:42:59;102309.06;;;13.11;90.30
44992;BME280;56865;51.618;7.406;2023-02-28T10:45:29;102304.88;;;13.94;80.18
44992;BME280;56865;51.618;7.406;2023-02-28T10:48:02;102298.94;;;13.95;91.89
44992;BME280;56865;51.618;7.406;2023-02-28T10:50:37;102291.94;;;13.49;89.30
44992;BME280;56865;51.618;7.406;2023-02-28T10:53:16;102297.19;;;13.52;89.99
44992;BME280;56865;51.618;7.406;2023-02-28T10:55:59;102303.69;;;13.86;86.94
44992;BME280;56865;51.618;7.406;2023-02-28T10:58:45;102302.09;;;14.11;84.15
44992;BME280;56865;51.618;7.406;2023-02-28T11:01:16;102309.88;;;13.91;85.24
44992;BME280;56865;51.618;7.406;2023-02-28T11:03:49;102295.44;;;14.61;85.46
44992;BME280;56865;51.618;7.406;2023-02-28T11:06:20;102297.97;;;14.83;82.30
44992;BME280;56865;51.618;7.406;2023-02-28T11:08:51;102301.69;;;15.15;79.63
44992;BME280;56865;51.618;7.406;2023-02-28T11:11:22;102298.38;;;15.19;81.78
44992;BME280;56865;51.618;7.406;2023-02-28T11:13:57;102301.91;;;15.21;76.34
44992;BME280;56865;51.618;7.406;2023-02-28T11:16:32;102305.44;;;15.25;76.04
44992;BME280;56865;51.618;7.406;2023-02-28T11:19:03;102303.81;;;15.03;82.53
44992;BME280;56865;51.618;7.406;2023-02-28T11:21:34;102299.41;;;14.99;79.18
44992;BME280;56865;51.618;7.406;2023-02-28T11:24:12;102306.81;;;15.15;79.85
44992;BME280;56865;51.618;7.406;2023-02-28T11:26:45;102314.66;;;15.44;71.75
44992;BME280;56865;51.618;7.406;2023-02-28T11:29:23;102304.25;;;14.67;81.08
44992;BME280;56865;51.618;7.406;2023-02-28T11:32:03;102313.09;;;14.08;79.52
44992;BME280;56865;51.618;7.406;2023-02-28T11:34:35;102299.09;;;14.89;76.30
44992;BME280;56865;51.618;7.406;2023-02-28T11:37:05;102303.75;;;15.01;76.03
44992;BME280;56865;51.618;7.406;2023-02-28T11:39:39;102294.13;;;14.49;79.25
44992;BME280;56865;51.618;7.406;2023-02-28T11:42:22;102297.09;;;14.82;79.37
44992;BME280;56865;51.618;7.406;2023-02-28T11:45:03;102296.38;;;14.86;77.17
44992;BME280;56865;51.618;7.406;2023-02-28T11:47:38;102304.06;;;15.10;83.65
44992;BME280;56865;51.618;7.406;2023-02-28T11:50:14;102297.66;;;14.98;79.74
44992;BME280;56865;51.618;7.406;2023-02-28T11:52:50;102290.97;;;15.27;78.45
44992;BME280;56865;51.618;7.406;2023-02-28T11:55:23;102289.38;;;15.56;75.54
44992;BME280;56865;51.618;7.406;2023-02-28T11:58:10;102282.31;;;15.76;77.96
44992;BME280;56865;51.618;7.406;2023-02-28T12:00:57;102281.03;;;15.89;71.18
44992;BME280;56865;51.618;7.406;2023-02-28T12:03:32;102285.78;;;15.01;80.83
44992;BME280;56865;51.618;7.406;2023-02-28T12:06:12;102281.66;;;14.35;74.92
44992;BME280;56865;51.618;7.406;2023-02-28T12:08:47;102273.25;;;13.94;77.94
44992;BME280;56865;51.618;7.406;2023-02-28T12:11:22;102276.16;;;13.82;75.95
44992;BME280;56865;51.618;7.406;2023-02-28T12:13:59;102265.53;;;14.38;78.55
44992;BME280;56865;51.618;7.406;2023-02-28T12:16:40;102257.56;;;14.77;79.27
44992;BME280;56865;51.618;7.406;2023-02-28T12:19:17;102259.22;;;15.25;78.52
44992;BME280;56865;51.618;7.406;2023-02-28T12:21:52;102254.38;;;15.60;81.08
44992;BME280;56865;51.618;7.406;2023-02-28T12:24:32;102248.34;;;15.85;82.77
44992;BME280;56865;51.618;7.406;2023-02-28T12:27:06;102246.97;;;15.97;77.19
44992;BME280;56865;51.618;7.406;2023-02-28T12:29:42;102246.19;;;15.73;75.87
44992;BME280;56865;51.618;7.406;2023-02-28T12:32:18;102251.69;;;15.57;74.04
44992;BME280;56865;51.618;7.406;2023-02-28T12:34:50;102249.38;;;15.13;71.87
44992;BME280;56865;51.618;7.406;2023-02-28T12:37:22;102237.28;;;15.35;76.46
44992;BME280;56865;51.618;7.406;2023-02-28T12:39:55;102236.03;;;15.23;74.02
44992;BME280;56865;51.618;7.406;2023-02-28T12:42:36;102238.63;;;14.99;74.58
44992;BME280;56865;51.618;7.406;2023-02-28T12:45:09;102234.84;;;14.18;71.16
44992;BME280;56865;51.618;7.406;2023-02-28T12:47:46;102240.25;;;14.49;78.81
44992;BME280;56865;51.618;7.406;2023-02-28T12:50:17;102239.56;;;14.30;78.89
44992;BME280;56865;51.618;7.406;2023-02-28T12:52:52;102246.13;;;13.78;78.47
44992;BME280;56865;51.618;7.406;2023-02-28T12:55:27;102238.78;;;13.87;82.34
44992;BME280;56865;51.618;7.406;2023-02-28T12:58:01;102226.97;;;13.91;80.60
44992;BME280;56865;51.618;7.406;2023-02-28T13:00:35;102230.47;;;14.38;81.37
44992;BME280;56865;51.618;7.406;2023-02-28T13:08:48;102221.19;;;13.53;76.88
44992;BME280;56865;51.618;7.406;2023-02-28T13:11:28;102209.25;;;12.91;82.12
44992;BME280;56865;51.618;7.406;2023-02-28T13:14:03;102209.19;;;12.90;79.98
44992;BME280;56865;51.618;7.406;2023-02-28T13:16:47;102216.34;;;13.38;78.29
44992;BME280;56865;51.618;7.406;2023-02-28T13:19:19;102195.00;;;14.04;89.80
44992;BME280;56865;51.618;7.406;2023-02-28T13:21:51;102201.19;;;13.86;81.38
44992;BME280;56865;51.618;7.406;2023-02-28T13:27:19;102196.84;;;14.55;79.53
44992;BME280;56865;51.618;7.406;2023-02-28T13:29:53;102193.41;;;15.28;81.27
44992;BME280;56865;51.618;7.406;2023-02-28T13:38:09;102195.59;;;13.96;76.44
44992;BME280;56865;51.618;7.406;2023-02-28T13:40:49;102192.53;;;14.07;78.62
44992;BME280;56865;51.618;7.406;2023-02-28T13:43:25;102191.84;;;14.11;73.10
44992;BME280;56865;51.618;7.406;2023-02-28T13:46:14;102195.16;;;13.86;79.31
44992;BME280;56865;51.618;7.406;2023-02-28T13:48:44;102183.66;;;14.44;80.01
44992;BME280;56865;51.618;7.406;2023-02-28T13:54:01;102175.72;;;14.86;75.59
44992;BME280;56865;51.618;7.406;2023-02-28T13:56:35;102189.06;;;15.02;74.36
44992;BME280;56865;51.618;7.406;2023-02-28T13:59:18;102187.28;;;14.99;77.49
44992;BME280;56865;51.618;7.406;2023-02-28T14:01:55;102183.97;;;14.53;78.92
44992;BME280;56865;51.618;7.406;2023-02-28T14:07:16;102187.75;;;14.87;75.75
44992;BME280;56865;51.618;7.406;2023-02-28T14:09:49;102183.63;;;14.67;75.14
44992;BME280;56865;51.618;7.406;2023-02-28T14:17:55;102174.88;;;14.39;72.67
44992;BME280;56865;51.618;7.406;2023-02-28T14:20:26;102173.31;;;13.73;79.57
44992;BME280;56865;51.618;7.406;2023-02-28T14:22:58;102169.00;;;13.94;85.07
44992;BME280;56865;51.618;7.406;2023-02-28T14:25:35;102172.03;;;13.84;77.14
44992;BME280;56865;51.618;7.406;2023-02-28T14:28:12;102177.19;;;13.63;76.33
44992;BME280;56865;51.618;7.406;2023-02-28T14:30:52;102167.06;;;13.43;81.49
44992;BME280;56865;51.618;7.406;2023-02-28T14:33:41;102168.44;;;13.37;82.17
44992;BME280;56865;51.618;7.406;2023-02-28T14:36:16;102179.38;;;12.71;88.34
44992;BME280;56865;51.618;7.406;2023-02-28T14:38:48;102166.31;;;13.05;94.05
44992;BME280;56865;51.618;7.406;2023-02-28T14:41:21;102175.13;;;12.91;81.58
44992;BME280;56865;51.618;7.406;2023-02-28T14:43:52;102170.97;;;12.54;82.53
44992;BME280;56865;51.618;7.406;2023-02-28T14:46:23;102165.41;;;12.43;87.97
44992;BME280;56865;51.618;7.406;2023-02-28T14:48:56;102159.72;;;11.75;85.42
44992;BME280;56865;51.618;7.406;2023-02-28T14:51:26;102159.66;;;12.29;92.19
44992;BME280;56865;51.618;7.406;2023-02-28T14:53:57;102152.66;;;12.25;95.05
44992;BME280;56865;51.618;7.406;2023-02-28T14:56:28;102159.28;;;11.83;87.81
44992;BME280;56865;51.618;7.406;2023-02-28T14:59:01;102152.59;;;11.67;89.66
44992;BME280;56865;51.618;7.406;2023-02-28T15:01:31;102160.03;;;11.45;89.07
44992;BME280;56865;51.618;7.406;2023-02-28T15:04:05;102148.72;;;11.58;90.80
44992;BME280;56865;51.618;7.406;2023-02-28T15:06:34;102154.94;;;11.45;88.23
44992;BME280;56865;51.618;7.406;2023-02-28T15:09:08;102149.25;;;11.68;98.90
44992;BME280;56865;51.618;7.406;2023-02-28T15:11:38;102145.59;;;11.45;97.12
44992;BME280;56865;51.618;7.406;2023-02-28T15:14:12;102137.41;;;11.34;96.34
44992;BME280;56865;51.618;7.406;2023-02-28T15:16:44;102141.44;;;10.95;92.21
44992;BME280;56865;51.618;7.406;2023-02-28T15:19:20;102140.19;;;11.39;92.53
44992;BME280;56865;51.618;7.406;2023-02-28T15:21:51;102135.44;;;11.29;98.09
44992;BME280;56865;51.618;7.406;2023-02-28T15:24:26;102144.50;;;11.22;99.29
44992;BME280;56865;51.618;7.406;2023-02-28T15:27:00;102149.41;;;11.01;97.58
44992;BME280;56865;51.618;7.406;2023-02-28T15:29:34;102142.63;;;11.01;100.00
44992;BME280;56865;51.618;7.406;2023-02-28T15:32:07;102143.94;;;10.93;88.83
44992;BME280;56865;51.618;7.406;2023-02-28T15:34:40;102143.34;;;10.99;92.01
44992;BME280;56865;51.618;7.406;2023-02-28T15:39:58;102142.06;;;11.07;92.58
44992;BME280;56865;51.618;7.406;2023-02-28T15:42:29;102141.53;;;10.96;94.04
44992;BME280;56865;51.618;7.406;2023-02-28T15:44:58;102145.69;;;10.78;90.31
44992;BME280;56865;51.618;7.406;2023-02-28T15:47:29;102143.09;;;11.11;87.48
44992;BME280;56865;51.618;7.406;2023-02-28T15:50:02;102145.94;;;10.82;95.52
44992;BME280;56865;51.618;7.406;2023-02-28T15:52:34;102147.41;;;10.95;95.55
44992;BME280;56865;51.618;7.406;2023-02-28T15:55:08;102142.19;;;11.10;93.90
44992;BME280;56865;51.618;7.406;2023-02-28T15:57:39;102138.66;;;11.25;94.95
44992;BME280;56865;51.618;7.406;2023-02-28T16:00:13;102148.69;;;11.03;94.08
44992;BME280;56865;51.618;7.406;2023-02-28T16:02:44;102141.75;;;11.01;94.73
44992;BME280;56865;51.618;7.406;2023-02-28T16:05:24;102147.97;;;11.24;96.04
44992;BME280;56865;51.618;7.406;2023-02-28T16:07:59;102149.22;;;11.50;91.72
44992;BME280;56865;51.618;7.406;2023-02-28T16:10:31;102149.97;;;11.48;95.39
44992;BME280;56865;51.618;7.406;2023-02-28T16:13:01;102151.94;;;11.35;95.99
44992;BME280;56865;51.618;7.406;2023-02-28T16:15:34;102152.88;;;11.55;97.87
44992;BME280;56865;51.618;7.406;2023-02-28T16:18:08;102157.91;;;11.54;93.17
44992;BME280;56865;51.618;7.406;2023-02-28T16:20:42;102159.81;;;11.22;94.34
44992;BME280;56865;51.618;7.406;2023-02-28T16:23:12;102153.31;;;11.47;93.72
44992;BME280;56865;51.618;7.406;2023-02-28T16:25:42;102163.28;;;11.24;92.30
44992;BME280;56865;51.618;7.406;2023-02-28T16:28:15;102159.22;;;11.28;95.13
44992;BME280;56865;51.618;7.406;2023-02-28T16:30:47;102153.97;;;11.25;99.60
44992;BME280;56865;51.618;7.406;2023-02-28T16:33:16;102150.47;;;11.41;97.02
44992;BME280;56865;51.618;7.406;2023-02-28T16:35:49;102149.38;;;11.35;99.04
44992;BME280;56865;51.618;7.406;2023-02-28T16:38:18;102154.31;;;11.14;95.12
44992;BME280;56865;51.618;7.406;2023-02-28T16:40:49;102158.25;;;11.08;93.74
44992;BME280;56865;51.618;7.406;2023-02-28T16:43:20;102159.72;;;10.86;97.87
44992;BME280;56865;51.618;7.406;2023-02-28T16:45:53;102155.72;;;10.91;94.67
44992;BME280;56865;51.618;7.406;2023-02-28T16:48:26;102158.13;;;10.88;95.83
44992;BME280;56865;51.618;7.406;2023-02-28T16:50:59;102170.75;;;12.29;90.93
44992;BME280;56865;51.618;7.406;2023-02-28T16:53:30;102172.38;;;12.27;95.46
44992;BME280;56865;51.618;7.406;2023-02-28T16:56:00;102165.91;;;12.16;93.88
44992;BME280;56865;51.618;7.406;2023-02-28T16:58:33;102174.47;;;12.16;91.17
44992;BME280;56865;51.618;7.406;2023-02-28T17:01:04;102172.66;;;12.14;92.59
44992;BME280;56865;51.618;7.406;2023-02-28T17:03:34;102175.63;;;11.87;88.92
44992;BME280;56865;51.618;7.406;2023-02-28T17:06:09;102170.53;;;11.69;91.75
44992;BME280;56865;51.618;7.406;2023-02-28T17:08:45;102176.00;;;11.77;91.03
44992;BME280;56865;51.618;7.406;2023-02-28T17:11:15;102180.38;;;11.79;90.45
44992;BME280;56865;51.618;7.406;2023-02-28T17:13:44;102183.09;;;11.64;88.00
44992;BME280;56865;51.618;7.406;2023-02-28T17:16:16;102182.53;;;11.70;87.25
44992;BME280;56865;51.618;7.406;2023-02-28T17:18:47;102182.34;;;11.49;88.84
44992;BME280;56865;51.618;7.406;2023-02-28T17:21:20;102183.94;;;11.47;90.40
44992;BME280;56865;51.618;7.406;2023-02-28T17:23:49;102184.84;;;11.47;89.55
44992;BME280;56865;51.618;7.406;2023-02-28T17:26:20;102186.00;;;11.54;90.52
44992;BME280;56865;51.618;7.406;2023-02-28T17:28:51;102184.13;;;11.50;89.91
44992;BME280;56865;51.618;7.406;2023-02-28T17:31:22;102195.69;;;11.43;91.31
44992;BME280;56865;51.618;7.406;2023-02-28T17:33:52;102190.09;;;11.32;89.04
44992;BME280;56865;51.618;7.406;2023-02-28T17:36:25;102193.25;;;11.45;90.70
44992;BME280;56865;51.618;7.406;2023-02-28T17:38:57;102192.41;;;11.28;89.19
44992;BME280;56865;51.618;7.406;2023-02-28T17:41:29;102192.16;;;11.23;91.54
44992;BME280;56865;51.618;7.406;2023-02-28T17:43:58;102190.34;;;11.20;90.33
44992;BME280;56865;51.618;7.406;2023-02-28T17:46:28;102197.69;;;11.14;90.90
44992;BME280;56865;51.618;7.406;2023-02-28T17:48:59;102189.84;;;10.93;91.65
44992;BME280;56865;51.618;7.406;2023-02-28T17:51:31;102189.97;;;11.13;92.71
44992;BME280;56865;51.618;7.406;2023-02-28T17:54:00;102191.22;;;11.21;88.57
44992;BME280;56865;51.618;7.406;2023-02-28T17:56:33;102190.94;;;11.15;89.79
44992;BME280;56865;51.618;7.406;2023-02-28T17:59:03;102196.16;;;11.18;89.70
44992;BME280;56865;51.618;7.406;2023-02-28T18:01:33;102200.53;;;11.20;87.71
44992;BME280;56865;51.618;7.406;2023-02-28T18:04:03;102198.44;;;10.95;88.24
44992;BME280;56865;51.618;7.406;2023-02-28T18:06:36;102195.53;;;10.71;90.12
44992;BME280;56865;51.618;7.406;2023-02-28T18:09:15;102203.09;;;10.69;88.54
44992;BME280;56865;51.618;7.406;2023-02-28T18:11:46;102195.97;;;10.80;90.62
44992;BME280;56865;51.618;7.406;2023-02-28T18:14:16;102201.81;;;10.78;88.94
44992;BME280;56865;51.618;7.406;2023-02-28T18:16:45;102201.16;;;10.49;88.01
44992;BME280;56865;51.618;7.406;2023-02-28T18:19:18;102201.81;;;10.45;90.25
44992;BME280;56865;51.618;7.406;2023-02-28T18:21:51;102200.22;;;10.47;92.94
44992;BME280;56865;51.618;7.406;2023-02-28T18:24:21;102204.34;;;10.45;92.67
44992;BME280;56865;51.618;7.406;2023-02-28T18:26:53;102214.66;;;10.31;94.22
44992;BME280;56865;51.618;7.406;2023-02-28T18:29:24;102213.88;;;10.32;92.12
44992;BME280;56865;51.618;7.406;2023-02-28T18:31:55;102219.75;;;10.00;91.95
44992;BME280;56865;51.618;7.406;2023-02-28T18:34:24;102217.69;;;9.92;93.68
44992;BME280;56865;51.618;7.406;2023-02-28T18:36:58;102212.06;;;9.83;92.81
44992;BME280;56865;51.618;7.406;2023-02-28T18:39:37;102209.09;;;9.75;91.74
44992;BME280;56865;51.618;7.406;2023-02-28T18:42:10;102210.41;;;9.84;95.12
44992;BME280;56865;51.618;7.406;2023-02-28T18:44:40;102215.09;;;9.76;95.40
44992;BME280;56865;51.618;7.406;2023-02-28T18:47:12;102206.66;;;9.62;94.84
44992;BME280;56865;51.618;7.406;2023-02-28T18:49:42;102204.22;;;9.49;92.23
44992;BME280;56865;51.618;7.406;2023-02-28T18:52:15;102206.75;;;9.79;92.96
44992;BME280;56865;51.618;7.406;2023-02-28T18:54:48;102212.13;;;9.85;95.96
44992;BME280;56865;51.618;7.406;2023-02-28T18:57:19;102215.63;;;9.55;94.92
44992;BME280;56865;51.618;7.406;2023-02-28T18:59:48;102214.03;;;9.42;96.76
44992;BME280;56865;51.618;7.406;2023-02-28T19:02:18;102213.00;;;9.39;95.81
44992;BME280;56865;51.618;7.406;2023-02-28T19:04:48;102217.03;;;9.35;94.39
44992;BME280;56865;51.618;7.406;2023-02-28T19:07:22;102211.06;;;9.35;96.68
44992;BME280;56865;51.618;7.406;2023-02-28T19:09:52;102207.34;;;9.44;98.03
44992;BME280;56865;51.618;7.406;2023-02-28T19:12:21;102208.06;;;9.42;98.81
44992;BME280;56865;51.618;7.406;2023-02-28T19:14:51;102212.53;;;9.76;93.37
44992;BME280;56865;51.618;7.406;2023-02-28T19:17:20;102208.25;;;9.60;95.53
44992;BME280;56865;51.618;7.406;2023-02-28T19:19:50;102216.66;;;9.59;95.30
44992;BME280;56865;51.618;7.406;2023-02-28T19:22:23;102216.94;;;9.64;94.46
44992;BME280;56865;51.618;7.406;2023-02-28T19:24:53;102214.75;;;9.55;94.67
44992;BME280;56865;51.618;7.406;2023-02-28T19:27:23;102220.00;;;9.58;94.47
44992;BME280;56865;51.618;7.406;2023-02-28T19:29:54;102219.84;;;9.55;94.30
44992;BME280;56865;51.618;7.406;2023-02-28T19:32:25;102216.59;;;9.42;92.27
44992;BME280;56865;51.618;7.406;2023-02-28T19:34:54;102211.78;;;9.47;95.31
44992;BME280;56865;51.618;7.406;2023-02-28T19:37:27;102213.41;;;9.47;95.18
44992;BME280;56865;51.618;7.406;2023-02-28T19:39:56;102208.06;;;8.97;99.54
44992;BME280;56865;51.618;7.406;2023-02-28T19:42:27;102209.66;;;9.25;96.23
44992;BME280;56865;51.618;7.406;2023-02-28T19:44:58;102221.25;;;9.35;96.95
44992;BME280;56865;51.618;7.406;2023-02-28T19:47:30;102225.63;;;9.37;97.28
44992;BME280;56865;51.618;7.406;2023-02-28T19:50:00;102223.09;;;9.37;98.15
44992;BME280;56865;51.618;7.406;2023-02-28T19:52:32;102218.28;;;8.28;99.76
44992;BME280;56865;51.618;7.406;2023-02-28T19:55:04;102212.06;;;8.10;100.00
44992;BME280;56865;51.618;7.406;2023-02-28T19:57:36;102225.28;;;7.91;100.00
44992;BME280;56865;51.618;7.406;2023-02-28T20:00:12;102222.69;;;8.58;100.00
44992;BME280;56865;51.618;7.406;2023-02-28T20:02:42;102226.13;;;9.17;99.52
44992;BME280;56865;51.618;7.406;2023-02-28T20:05:12;102219.81;;;8.11;100.00
44992;BME280;56865;51.618;7.406;2023-02-28T20:07:44;102226.44;;;8.09;100.00
44992;BME280;56865;51.618;7.406;2023-02-28T20:10:14;102224.50;;;8.05;100.00
44992;BME280;56865;51.618;7.406;2023-02-28T20:12:43;102225.38;;;7.79;100.00
44992;BME280;56865;51.618;7.406;2023-02-28T20:15:13;102218.25;;;7.87;100.00
44992;BME280;56865;51.618;7.406;2023-02-28T20:17:42;102218.72;;;7.54;100.00
44992;BME280;56865;51.618;7.406;2023-02-28T20:20:12;102215.72;;;7.60;100.00
44992;BME280;56865;51.618;7.406;2023-02-28T20:22:44;102216.84;;;7.52;100.00
44992;BME280;56865;51.618;7.406;2023-02-28T20:25:14;102217.78;;;8.89;100.00
44992;BME280;56865;51.618;7.406;2023-02-28T20:27:44;102210.06;;;9.03;99.61
44992;BME280;56865;51.618;7.406;2023-02-28T20:30:13;102219.88;;;8.97;98.13
44992;BME280;56865;51.618;7.406;2023-02-28T20:32:43;102219.09;;;8.98;98.32
44992;BME280;56865;51.618;7.406;2023-02-28T20:35:13;102209.81;;;8.98;96.36
44992;BME280;56865;51.618;7.406;2023-02-28T20:37:45;102208.38;;;8.88;99.48
44992;BME280;56865;51.618;7.406;2023-02-28T20:40:15;102221.00;;;8.87;97.71
44992;BME280;56865;51.618;7.406;2023-02-28T20:42:45;102224.16;;;8.98;97.14
44992;BME280;56865;51.618;7.406;2023-02-28T20:45:14;102222.25;;;8.93;98.20